createdAt,value
2022-09-01T00:00:13.639Z,91.84
2022-09-01T00:02:44.456Z,93.24
2022-09-01T00:05:13.218Z,93.76
2022-09-01T00:07:40.682Z,94.07
2022-09-01T00:10:08.954Z,94.36
2022-09-01T00:12:38.377Z,94.61
2022-09-01T00:15:08.810Z,95.31
2022-09-01T00:17:40.111Z,96.14
2022-09-01T00:20:08.036Z,97.30
2022-09-01T00:22:35.218Z,97.80
2022-09-01T00:25:02.270Z,98.50
2022-09-01T00:27:30.962Z,99.00
2022-09-01T00:30:00.133Z,98.90
2022-09-01T00:32:28.047Z,99.57
2022-09-01T00:34:55.724Z,99.40
2022-09-01T00:37:22.992Z,99.17
2022-09-01T00:39:50.339Z,99.34
2022-09-01T00:42:17.595Z,99.41
2022-09-01T00:44:44.795Z,98.60
2022-09-01T00:47:14.662Z,99.24
2022-09-01T00:49:46.940Z,99.45
2022-09-01T00:52:19.038Z,98.31
2022-09-01T00:54:51.512Z,97.30
2022-09-01T00:57:18.997Z,97.75
2022-09-01T00:59:53.169Z,98.15
2022-09-01T01:02:20.557Z,98.54
2022-09-01T01:04:47.682Z,97.75
2022-09-01T01:07:17.069Z,98.26
2022-09-01T01:09:46.247Z,98.48
2022-09-01T01:12:18.612Z,98.93
2022-09-01T01:14:50.595Z,99.86
2022-09-01T01:17:22.084Z,99.89
2022-09-01T01:20:12.457Z,100.00
2022-09-01T01:23:11.042Z,100.00
2022-09-01T01:25:49.174Z,100.00
2022-09-01T01:28:24.782Z,100.00
2022-09-01T01:31:01.610Z,100.00
2022-09-01T01:33:42.999Z,100.00
2022-09-01T01:36:16.553Z,100.00
2022-09-01T01:38:47.035Z,100.00
2022-09-01T01:41:17.723Z,100.00
2022-09-01T01:43:45.031Z,100.00
2022-09-01T01:46:14.904Z,100.00
2022-09-01T01:48:43.188Z,100.00
2022-09-01T01:51:12.053Z,100.00
2022-09-01T01:53:40.841Z,100.00
2022-09-01T01:56:09.609Z,100.00
2022-09-01T01:58:37.468Z,100.00
2022-09-01T02:01:12.841Z,100.00
2022-09-01T02:03:41.094Z,100.00
2022-09-01T02:06:10.549Z,100.00
2022-09-01T02:08:39.494Z,100.00
2022-09-01T02:11:07.690Z,100.00
2022-09-01T02:13:36.073Z,100.00
2022-09-01T02:16:17.036Z,100.00
2022-09-01T02:18:48.997Z,100.00
2022-09-01T02:21:22.653Z,100.00
2022-09-01T02:24:02.264Z,100.00
2022-09-01T02:26:34.906Z,100.00
2022-09-01T02:29:06.056Z,100.00
2022-09-01T02:31:39.979Z,100.00
2022-09-01T02:34:14.244Z,100.00
2022-09-01T02:36:48.314Z,100.00
2022-09-01T02:39:23.695Z,100.00
2022-09-01T02:41:52.319Z,100.00
2022-09-01T02:44:24.250Z,100.00
2022-09-01T02:46:51.599Z,100.00
2022-09-01T02:49:28.388Z,100.00
2022-09-01T02:52:01.665Z,100.00
2022-09-01T02:54:32.532Z,100.00
2022-09-01T02:57:00.722Z,100.00
2022-09-01T02:59:30.532Z,100.00
2022-09-01T03:02:00.412Z,100.00
2022-09-01T03:04:27.862Z,100.00
2022-09-01T03:06:59.055Z,100.00
2022-09-01T03:09:26.413Z,100.00
2022-09-01T03:11:54.381Z,100.00
2022-09-01T03:14:24.922Z,100.00
2022-09-01T03:16:52.465Z,100.00
2022-09-01T03:19:22.276Z,100.00
2022-09-01T03:21:51.632Z,100.00
2022-09-01T03:24:26.079Z,100.00
2022-09-01T03:26:56.922Z,100.00
2022-09-01T03:29:24.898Z,100.00
2022-09-01T03:31:53.030Z,100.00
2022-09-01T03:34:23.744Z,100.00
2022-09-01T03:36:54.978Z,100.00
2022-09-01T03:39:29.873Z,100.00
2022-09-01T03:41:58.945Z,100.00
2022-09-01T03:44:27.488Z,100.00
2022-09-01T03:46:54.960Z,100.00
2022-09-01T03:49:27.896Z,100.00
2022-09-01T03:51:58.424Z,100.00
2022-09-01T03:54:28.565Z,100.00
2022-09-01T03:56:59.655Z,100.00
2022-09-01T03:59:28.692Z,100.00
2022-09-01T04:01:56.928Z,100.00
2022-09-01T04:04:24.780Z,100.00
2022-09-01T04:06:52.642Z,100.00
2022-09-01T04:09:21.183Z,100.00
2022-09-01T04:11:48.552Z,100.00
2022-09-01T04:14:20.582Z,100.00
2022-09-01T04:17:08.867Z,100.00
2022-09-01T04:19:39.718Z,100.00
2022-09-01T04:22:14.396Z,100.00
2022-09-01T04:24:46.601Z,100.00
2022-09-01T04:27:18.316Z,100.00
2022-09-01T04:29:47.167Z,100.00
2022-09-01T04:32:15.966Z,100.00
2022-09-01T04:34:47.090Z,100.00
2022-09-01T04:37:19.132Z,100.00
2022-09-01T04:39:55.739Z,98.14
2022-09-01T04:42:29.884Z,97.50
2022-09-01T04:45:07.163Z,97.80
2022-09-01T04:47:45.543Z,97.13
2022-09-01T04:50:17.990Z,95.90
2022-09-01T04:53:06.323Z,95.73
2022-09-01T04:55:50.024Z,95.53
2022-09-01T04:58:22.138Z,96.25
2022-09-01T05:00:53.463Z,94.97
2022-09-01T05:03:24.415Z,93.74
2022-09-01T05:06:23.851Z,91.74
2022-09-01T05:08:58.532Z,91.95
2022-09-01T05:11:45.603Z,91.26
2022-09-01T05:14:30.925Z,91.15
2022-09-01T05:16:59.767Z,91.16
2022-09-01T05:19:30.905Z,90.84
2022-09-01T05:22:00.602Z,90.14
2022-09-01T05:24:30.574Z,88.97
2022-09-01T05:27:01.225Z,89.01
2022-09-01T05:29:29.764Z,88.83
2022-09-01T05:31:58.832Z,89.50
2022-09-01T05:34:27.343Z,89.96
2022-09-01T05:36:58.212Z,90.68
2022-09-01T05:39:27.329Z,89.49
2022-09-01T05:41:54.773Z,88.37
2022-09-01T05:44:23.091Z,86.65
2022-09-01T05:46:53.678Z,86.15
2022-09-01T05:49:21.470Z,86.41
2022-09-01T05:51:52.553Z,86.40
2022-09-01T05:54:23.337Z,83.68
2022-09-01T05:56:50.887Z,83.60
2022-09-01T05:59:24.905Z,81.23
2022-09-01T06:02:01.107Z,80.08
2022-09-01T06:04:30.290Z,80.56
2022-09-01T06:07:09.017Z,78.82
2022-09-01T06:09:43.750Z,78.62
2022-09-01T06:12:18.654Z,77.67
2022-09-01T06:14:48.535Z,77.62
2022-09-01T06:17:19.715Z,76.53
2022-09-01T06:19:47.075Z,76.89
2022-09-01T06:22:16.200Z,75.02
2022-09-01T06:24:43.887Z,76.07
2022-09-01T06:27:12.895Z,75.73
2022-09-01T06:29:41.792Z,74.15
2022-09-01T06:32:13.229Z,73.44
2022-09-01T06:34:43.790Z,73.92
2022-09-01T06:37:13.427Z,73.94
2022-09-01T06:39:44.221Z,74.32
2022-09-01T06:42:14.116Z,74.62
2022-09-01T06:44:51.263Z,74.55
2022-09-01T06:47:19.500Z,73.11
2022-09-01T06:49:46.660Z,72.34
2022-09-01T06:52:22.706Z,73.25
2022-09-01T06:54:53.346Z,72.09
2022-09-01T07:00:20.247Z,71.75
2022-09-01T07:02:55.061Z,72.15
2022-09-01T07:16:30.107Z,70.83
2022-09-01T07:17:24.475Z,70.90
2022-09-01T07:19:52.121Z,70.83
2022-09-01T07:25:12.171Z,71.13
2022-09-01T07:27:55.719Z,69.29
2022-09-01T07:30:29.206Z,68.23
2022-09-01T07:33:41.456Z,68.35
2022-09-01T07:36:25.700Z,68.25
2022-09-01T07:44:29.178Z,67.30
2022-09-01T07:53:12.713Z,65.52
2022-09-01T07:55:44.356Z,64.88
2022-09-01T07:58:13.585Z,63.93
2022-09-01T08:00:47.436Z,64.04
2022-09-01T08:03:19.136Z,64.19
2022-09-01T08:05:47.587Z,63.86
2022-09-01T08:08:27.760Z,63.94
2022-09-01T08:11:04.241Z,64.42
2022-09-01T08:13:41.637Z,64.03
2022-09-01T08:16:17.970Z,63.30
2022-09-01T08:18:49.059Z,63.50
2022-09-01T08:21:41.070Z,63.00
2022-09-01T08:24:40.634Z,62.72
2022-09-01T08:27:08.510Z,62.10
2022-09-01T08:29:35.957Z,61.82
2022-09-01T08:32:03.538Z,60.90
2022-09-01T08:34:33.566Z,60.55
2022-09-01T08:37:01.095Z,60.48
2022-09-01T08:39:28.463Z,61.34
2022-09-01T08:42:12.417Z,60.63
2022-09-01T08:45:07.826Z,59.87
2022-09-01T08:47:55.970Z,59.48
2022-09-01T08:50:23.890Z,59.25
2022-09-01T08:53:21.164Z,59.65
2022-09-01T08:55:55.790Z,59.86
2022-09-01T08:58:23.158Z,60.95
2022-09-01T09:01:41.768Z,59.63
2022-09-01T09:04:19.902Z,59.53
2022-09-01T09:06:53.759Z,58.71
2022-09-01T09:09:32.315Z,58.22
2022-09-01T09:12:25.362Z,59.15
2022-09-01T09:15:11.947Z,57.73
2022-09-01T09:17:56.020Z,57.34
2022-09-01T09:20:28.148Z,56.65
2022-09-01T09:22:59.353Z,56.50
2022-09-01T09:25:29.786Z,57.72
2022-09-01T09:28:00.821Z,57.22
2022-09-01T09:30:31.475Z,56.75
2022-09-01T09:36:17.190Z,55.85
2022-09-01T09:38:44.400Z,55.13
2022-09-01T09:41:26.907Z,55.43
2022-09-01T09:44:16.633Z,55.19
2022-09-01T09:46:47.719Z,53.94
2022-09-01T09:49:21.682Z,53.84
2022-09-01T09:52:18.281Z,54.62
2022-09-01T09:55:30.575Z,54.36
2022-09-01T09:58:09.615Z,53.72
2022-09-01T10:00:37.094Z,52.85
2022-09-01T10:03:12.449Z,52.37
2022-09-01T10:05:48.923Z,52.25
2022-09-01T10:08:31.496Z,51.95
2022-09-01T10:10:59.223Z,51.96
2022-09-01T10:13:33.575Z,50.64
2022-09-01T10:16:05.423Z,50.65
2022-09-01T10:18:38.680Z,49.96
2022-09-01T10:21:15.266Z,49.87
2022-09-01T10:23:43.521Z,51.00
2022-09-01T10:26:23.131Z,51.06
2022-09-01T10:29:00.154Z,50.12
2022-09-01T10:31:32.229Z,49.76
2022-09-01T10:34:05.464Z,49.73
2022-09-01T10:36:37.804Z,49.87
2022-09-01T10:39:08.753Z,49.81
2022-09-01T10:41:42.616Z,49.03
2022-09-01T10:44:19.395Z,48.53
2022-09-01T10:46:51.364Z,47.89
2022-09-01T10:49:38.605Z,48.07
2022-09-01T10:52:12.950Z,47.28
2022-09-01T10:54:58.069Z,46.84
2022-09-01T10:57:51.906Z,47.67
2022-09-01T11:06:13.707Z,48.16
2022-09-01T11:08:51.057Z,47.43
2022-09-01T11:12:05.831Z,47.81
2022-09-01T11:14:36.082Z,46.84
2022-09-01T11:17:26.511Z,46.61
2022-09-01T11:20:12.871Z,47.01
2022-09-01T11:22:46.838Z,46.80
2022-09-01T11:25:39.266Z,46.35
2022-09-01T11:28:18.180Z,46.70
2022-09-01T11:30:55.519Z,47.65
2022-09-01T11:33:33.677Z,47.24
2022-09-01T11:36:24.343Z,46.42
2022-09-01T11:38:58.926Z,45.50
2022-09-01T11:41:34.140Z,45.60
2022-09-01T11:44:04.431Z,45.83
2022-09-01T11:46:34.899Z,46.01
2022-09-01T11:49:18.521Z,46.29
2022-09-01T11:52:17.062Z,45.58
2022-09-01T11:54:46.860Z,45.44
2022-09-01T11:57:30.144Z,44.92
2022-09-01T12:00:00.077Z,45.65
2022-09-01T12:02:36.727Z,45.06
2022-09-01T12:05:41.084Z,45.38
2022-09-01T12:08:18.455Z,44.85
2022-09-01T12:11:03.614Z,44.89
2022-09-01T12:13:30.926Z,45.49
2022-09-01T12:16:19.010Z,44.64
2022-09-01T12:18:50.012Z,45.62
2022-09-01T12:21:42.809Z,45.46
2022-09-01T12:24:34.307Z,45.05
2022-09-01T12:27:02.351Z,45.38
2022-09-01T12:29:32.149Z,45.51
2022-09-01T12:32:00.792Z,44.64
2022-09-01T12:34:33.627Z,44.86
2022-09-01T12:37:10.442Z,44.67
2022-09-01T12:39:46.250Z,44.32
2022-09-01T12:42:26.056Z,45.46
2022-09-01T12:45:09.049Z,45.65
2022-09-01T12:47:36.389Z,46.11
2022-09-01T12:50:16.966Z,46.07
2022-09-01T12:52:53.554Z,45.94
2022-09-01T12:58:12.819Z,46.08
2022-09-01T13:01:00.827Z,46.63
2022-09-01T13:03:30.236Z,46.55
2022-09-01T13:05:59.920Z,45.87
2022-09-01T13:08:34.213Z,45.57
2022-09-01T13:11:15.860Z,45.11
2022-09-01T13:13:43.579Z,45.80
2022-09-01T13:16:13.170Z,46.10
2022-09-01T13:21:31.641Z,46.42
2022-09-01T13:23:59.220Z,45.54
2022-09-01T13:26:26.545Z,45.40
2022-09-01T13:28:54.050Z,45.25
2022-09-01T13:31:29.267Z,44.62
2022-09-01T13:34:20.570Z,45.12
2022-09-01T13:36:48.575Z,45.24
2022-09-01T13:39:19.042Z,44.96
2022-09-01T13:41:48.556Z,44.39
2022-09-01T13:44:17.714Z,44.81
2022-09-01T13:47:28.271Z,44.73
2022-09-01T13:52:21.695Z,44.90
2022-09-01T13:54:50.076Z,45.14
2022-09-01T13:57:19.618Z,45.04
2022-09-01T13:59:46.730Z,44.74
2022-09-01T14:02:13.950Z,44.49
2022-09-01T14:04:41.509Z,44.12
2022-09-01T14:07:08.845Z,44.15
2022-09-01T14:09:38.951Z,43.84
2022-09-01T14:12:07.945Z,44.29
2022-09-01T14:17:26.514Z,45.08
2022-09-01T14:19:53.851Z,44.79
2022-09-01T14:22:21.226Z,44.87
2022-09-01T14:24:49.007Z,44.76
2022-09-01T14:27:16.329Z,45.25
2022-09-01T14:32:09.993Z,45.29
2022-09-01T14:34:37.645Z,45.51
2022-09-01T14:37:05.091Z,45.67
2022-09-01T14:39:32.493Z,45.11
2022-09-01T14:42:00.741Z,45.90
2022-09-01T14:44:27.970Z,45.78
2022-09-01T14:46:55.301Z,45.90
2022-09-01T14:49:22.691Z,45.51
2022-09-01T14:54:40.066Z,46.19
2022-09-01T14:59:54.760Z,46.25
2022-09-01T15:02:22.170Z,46.14
2022-09-01T15:04:49.328Z,46.20
2022-09-01T15:07:16.630Z,46.96
2022-09-01T15:09:43.785Z,46.50
2022-09-01T15:12:11.046Z,46.70
2022-09-01T15:14:38.477Z,47.29
2022-09-01T15:17:07.258Z,47.97
2022-09-01T15:19:35.397Z,48.64
2022-09-01T15:22:03.374Z,49.49
2022-09-01T15:24:30.835Z,50.74
2022-09-01T15:26:58.242Z,51.22
2022-09-01T15:30:17.359Z,51.62
2022-09-01T15:32:50.527Z,51.47
2022-09-01T15:35:19.487Z,51.41
2022-09-01T15:37:48.256Z,51.89
2022-09-01T15:40:16.665Z,51.97
2022-09-01T15:42:43.911Z,52.19
2022-09-01T15:45:15.063Z,52.53
2022-09-01T15:47:45.601Z,52.69
2022-09-01T15:50:16.843Z,53.18
2022-09-01T15:52:59.610Z,52.33
2022-09-01T15:55:41.190Z,51.57
2022-09-01T15:58:09.994Z,52.71
2022-09-01T16:00:37.267Z,52.32
2022-09-01T16:03:06.076Z,52.04
2022-09-01T16:05:36.774Z,52.09
2022-09-01T16:08:09.845Z,52.21
2022-09-01T16:10:40.153Z,52.63
2022-09-01T16:13:08.547Z,53.16
2022-09-01T16:15:51.220Z,53.99
2022-09-01T16:18:42.285Z,54.36
2022-09-01T16:21:30.978Z,54.66
2022-09-01T16:24:06.055Z,54.82
2022-09-01T16:26:36.202Z,55.00
2022-09-01T16:29:11.247Z,55.45
2022-09-01T16:31:42.834Z,55.67
2022-09-01T16:34:14.801Z,56.08
2022-09-01T16:36:41.848Z,57.07
2022-09-01T16:39:47.284Z,57.80
2022-09-01T16:42:46.893Z,59.05
2022-09-01T16:45:40.893Z,58.15
2022-09-01T16:48:19.602Z,59.42
2022-09-01T16:51:03.011Z,60.15
2022-09-01T16:53:53.234Z,61.45
2022-09-01T16:56:35.750Z,62.20
2022-09-01T16:59:14.450Z,61.99
2022-09-01T17:02:07.136Z,61.40
2022-09-01T17:04:47.769Z,61.55
2022-09-01T17:07:15.017Z,60.26
2022-09-01T17:09:46.452Z,59.74
2022-09-01T17:12:27.858Z,59.79
2022-09-01T17:15:02.130Z,60.34
2022-09-01T17:17:42.427Z,60.88
2022-09-01T17:20:12.089Z,61.32
2022-09-01T17:22:46.654Z,61.70
2022-09-01T17:25:26.147Z,63.12
2022-09-01T17:28:25.603Z,64.95
2022-09-01T17:31:28.539Z,66.82
2022-09-01T17:34:31.473Z,68.96
2022-09-01T17:37:06.283Z,69.20
2022-09-01T17:40:15.558Z,69.75
2022-09-01T17:43:05.087Z,69.49
2022-09-01T17:45:52.813Z,68.99
2022-09-01T17:48:52.854Z,67.00
2022-09-01T17:51:20.090Z,66.08
2022-09-01T17:54:02.424Z,65.88
2022-09-01T17:56:45.380Z,66.01
2022-09-01T17:59:22.668Z,66.30
2022-09-01T18:01:56.133Z,66.59
2022-09-01T18:04:35.672Z,66.80
2022-09-01T18:07:14.655Z,67.68
2022-09-01T18:09:54.455Z,67.25
2022-09-01T18:12:30.996Z,67.31
2022-09-01T18:15:19.967Z,66.95
2022-09-01T18:18:02.714Z,67.53
2022-09-01T18:20:39.185Z,69.21
2022-09-01T18:23:12.495Z,72.59
2022-09-01T18:25:51.132Z,72.54
2022-09-01T18:28:19.098Z,72.55
2022-09-01T18:31:25.531Z,71.38
2022-09-01T18:34:08.383Z,72.03
2022-09-01T18:36:44.915Z,72.43
2022-09-01T18:39:41.361Z,72.32
2022-09-01T18:42:34.325Z,73.07
2022-09-01T18:45:14.138Z,72.82
2022-09-01T18:48:01.507Z,73.80
2022-09-01T18:50:43.760Z,75.16
2022-09-01T18:53:34.236Z,74.76
2022-09-01T18:56:37.450Z,76.05
2022-09-01T18:59:36.764Z,76.26
2022-09-01T19:02:22.935Z,77.66
2022-09-01T19:04:57.901Z,77.97
2022-09-01T19:07:58.246Z,78.63
2022-09-01T19:10:42.704Z,78.97
2022-09-01T19:13:28.228Z,79.17
2022-09-01T19:16:24.793Z,80.71
2022-09-01T19:18:52.017Z,80.91
2022-09-01T19:21:25.305Z,80.37
2022-09-01T19:24:13.686Z,81.55
2022-09-01T19:26:55.050Z,81.90
2022-09-01T19:29:31.893Z,82.13
2022-09-01T19:32:07.112Z,81.31
2022-09-01T19:34:41.798Z,82.43
2022-09-01T19:37:10.768Z,82.65
2022-09-01T19:39:44.732Z,83.28
2022-09-01T19:42:18.342Z,82.50
2022-09-01T19:45:27.638Z,83.29
2022-09-01T19:48:19.224Z,84.15
2022-09-01T19:50:51.033Z,85.52
2022-09-01T19:53:50.925Z,84.55
2022-09-01T19:56:23.661Z,85.27
2022-09-01T19:59:14.198Z,86.13
2022-09-01T20:02:00.233Z,86.83
2022-09-01T20:04:47.402Z,86.68
2022-09-01T20:07:44.745Z,86.63
2022-09-01T20:10:14.944Z,87.64
2022-09-01T20:13:00.545Z,88.27
2022-09-01T20:15:40.265Z,88.61
2022-09-01T20:18:13.712Z,88.30
2022-09-01T20:20:48.806Z,87.63
2022-09-01T20:23:42.996Z,88.73
2022-09-01T20:26:19.060Z,87.81
2022-09-01T20:29:16.611Z,88.31
2022-09-01T20:31:46.543Z,87.97
2022-09-01T20:34:49.071Z,87.99
2022-09-01T20:37:22.056Z,88.29
2022-09-01T20:40:02.700Z,88.63
2022-09-01T20:42:43.892Z,88.50
2022-09-01T20:45:27.495Z,88.50
2022-09-01T20:48:01.888Z,88.63
2022-09-01T20:50:44.484Z,88.98
2022-09-01T20:53:30.293Z,88.16
2022-09-01T20:56:18.761Z,88.06
2022-09-01T20:59:32.268Z,88.06
2022-09-01T21:02:10.340Z,87.88
2022-09-01T21:04:47.880Z,88.38
2022-09-01T21:07:41.966Z,88.51
2022-09-01T21:10:53.890Z,88.16
2022-09-01T21:13:33.838Z,88.42
2022-09-01T21:16:36.141Z,88.93
2022-09-01T21:19:22.502Z,88.88
2022-09-01T21:22:01.674Z,89.74
2022-09-01T21:24:28.991Z,91.04
2022-09-01T21:26:58.183Z,90.82
2022-09-01T21:29:51.027Z,91.00
2022-09-01T21:32:18.502Z,91.61
2022-09-01T21:34:47.511Z,90.84
2022-09-01T21:37:15.222Z,92.07
2022-09-01T21:39:42.331Z,92.21
2022-09-01T21:42:10.966Z,92.14
2022-09-01T21:44:39.836Z,92.64
2022-09-01T21:47:07.068Z,92.48
2022-09-01T21:49:34.371Z,92.58
2022-09-01T21:52:01.640Z,92.76
2022-09-01T21:54:28.823Z,91.84
2022-09-01T21:56:55.965Z,91.38
2022-09-01T21:59:23.142Z,91.35
2022-09-01T22:01:50.850Z,91.01
2022-09-01T22:04:23.158Z,90.78
2022-09-01T22:06:51.566Z,90.78
2022-09-01T22:09:20.614Z,90.53
2022-09-01T22:11:48.910Z,90.85
2022-09-01T22:14:16.442Z,91.71
2022-09-01T22:16:43.921Z,92.44
2022-09-01T22:19:11.006Z,92.49
2022-09-01T22:21:41.669Z,93.00
2022-09-01T22:24:09.050Z,92.30
2022-09-01T22:26:36.507Z,92.06
2022-09-01T22:29:06.896Z,91.41
2022-09-01T22:31:37.774Z,90.83
2022-09-01T22:34:06.296Z,90.07
2022-09-01T22:36:39.777Z,89.75
2022-09-01T22:39:09.395Z,89.61
2022-09-01T22:41:38.144Z,89.30
2022-09-01T22:44:05.498Z,89.36
2022-09-01T22:46:35.569Z,89.32
2022-09-01T22:49:03.277Z,89.12
2022-09-01T22:51:32.151Z,88.96
2022-09-01T22:53:59.465Z,88.90
2022-09-01T22:56:29.566Z,88.55
2022-09-01T22:59:01.546Z,88.58
2022-09-01T23:01:33.150Z,88.41
2022-09-01T23:04:01.885Z,88.21
2022-09-01T23:06:30.657Z,88.12
2022-09-01T23:08:59.848Z,88.27
2022-09-01T23:11:27.557Z,87.47
2022-09-01T23:13:55.772Z,87.82
2022-09-01T23:16:25.194Z,87.87
2022-09-01T23:18:53.552Z,87.69
2022-09-01T23:21:24.080Z,87.85
2022-09-01T23:23:57.390Z,87.76
2022-09-01T23:26:27.812Z,87.64
2022-09-01T23:28:55.556Z,87.60
2022-09-01T23:31:25.225Z,86.92
2022-09-01T23:33:52.955Z,87.12
2022-09-01T23:36:23.931Z,86.93
2022-09-01T23:38:51.788Z,87.27
2022-09-01T23:41:23.342Z,86.79
2022-09-01T23:43:52.942Z,86.47
2022-09-01T23:46:29.472Z,86.32
2022-09-01T23:48:57.491Z,86.79
2022-09-01T23:51:25.702Z,86.76
2022-09-01T23:53:53.363Z,86.77
2022-09-01T23:56:23.555Z,86.84
2022-09-01T23:58:51.218Z,86.83
